Verhalen, Texas
Current Conditions -  °F | °C
As of 8:55 AM on Monday 24 Nov 2014 (Local Time) from KPEQ Reporting Station
Clear Clear  
Wind Chill: 33°   Ceiling: Unl
Heat Index: 37°   Visibility: 10mi
Dew Point: 27°   Wind: 5mph
Humidity: 68%   Direction: 260°W
Pressure: 30.13"   Gusts: NA
Location:  31.4465°N, 103.713°W
Report Text: KPEQ 241455Z AUTO 26004KT 10SM CLR 03/M03 A3013 RMK AO2 T00271026
Loading
Personal Weather Stations






























Interactive Weather Map New forecast layout! Learn more

10-Day Weather Forecast

Advertisements
Track Severe Weather on mobile